Terminal Aerodrome Forecast
Issued by NWS Portland, ME

Current Version | Previous Version | Text Only | Print | Product List | Glossary On
Versions: 1 2 3 4 5 6 7 8 9 10 11 12 13 14 15 16 17 18
000 FTUS41 KGYX 251121 TAFPWM TAF KPWM 251121Z 2512/2612 30006KT P6SM SKC FM251400 32015G22KT P6SM SCT050 FM252300 33010KT P6SM SKC FM260600 33004KT P6SM SKC=

USA.gov is the U.S. government's official web portal to all federal, state and local government web resources and services.